Time;durP1;ratioP1;P1;durP2;ratioP2;P2;SDS_P1;SDS_P2;PMS_P1;PMS_P2;Temp;Humidity;BMP_temperature;BMP_pressure;BME280_temperature;BME280_humidity;BME280_pressure;Samples;Min_cycle;Max_cycle;Signal;HPM_P1;HPM_P2
2022/03/25 00:01:31;;;;;;;;;47.00;39.50;;;;;16.37;30.66;102265.97;4973848;28;45435;-76
2022/03/25 00:03:57;;;;;;;;;52.25;42.50;;;;;16.38;30.45;102265.91;4972472;28;45499;-75
2022/03/25 00:06:23;;;;;;;;;50.75;42.50;;;;;16.34;30.44;102260.66;4973734;28;45484;-76
2022/03/25 00:08:48;;;;;;;;;48.25;39.00;;;;;16.41;30.30;102265.81;4971804;28;46075;-76
2022/03/25 00:11:14;;;;;;;;;50.25;39.25;;;;;16.42;30.40;102264.91;4977659;28;45541;-76
2022/03/25 00:13:40;;;;;;;;;53.50;42.25;;;;;16.42;30.23;102267.59;4973463;28;45595;-76
2022/03/25 00:16:06;;;;;;;;;51.25;40.00;;;;;16.34;30.03;102271.44;4973986;28;46012;-76
2022/03/25 00:18:32;;;;;;;;;50.00;41.50;;;;;16.35;30.39;102273.22;4981086;28;45273;-76
2022/03/25 00:20:57;;;;;;;;;51.25;41.25;;;;;16.32;30.24;102270.63;4972229;28;45317;-76
2022/03/25 00:23:23;;;;;;;;;34.00;30.50;;;;;16.27;29.97;102274.38;4974042;28;45759;-76
2022/03/25 00:25:48;;;;;;;;;53.00;42.50;;;;;16.24;29.82;102273.59;4982678;28;48367;-76
2022/03/25 00:28:14;;;;;;;;;45.75;36.50;;;;;16.21;30.04;102262.91;4977755;28;45450;-76
2022/03/25 00:30:39;;;;;;;;;49.00;38.50;;;;;16.23;30.17;102267.28;4981844;28;45371;-76
2022/03/25 00:33:05;;;;;;;;;50.00;39.00;;;;;16.16;29.89;102257.66;4980413;28;45515;-76
2022/03/25 00:35:31;;;;;;;;;48.00;39.75;;;;;16.20;30.04;102267.38;4976130;28;45519;-77
2022/03/25 00:37:58;;;;;;;;;51.75;43.25;;;;;16.17;30.02;102255.81;4974978;28;45984;-76
2022/03/25 00:40:23;;;;;;;;;49.75;40.75;;;;;16.20;30.23;102261.13;4975853;28;45518;-76
2022/03/25 00:42:49;;;;;;;;;50.00;40.25;;;;;16.22;30.36;102273.63;4985195;28;45315;-76
2022/03/25 00:45:14;;;;;;;;;44.25;37.00;;;;;16.21;30.11;102261.06;4976046;28;46118;-76
2022/03/25 00:47:40;;;;;;;;;50.00;41.00;;;;;16.19;29.92;102254.88;4977117;28;45466;-76
2022/03/25 00:50:06;;;;;;;;;50.25;40.50;;;;;16.23;30.19;102269.97;4981711;28;45506;-76
2022/03/25 00:52:32;;;;;;;;;52.00;42.50;;;;;16.21;30.14;102266.47;4982085;28;45350;-76
2022/03/25 00:54:57;;;;;;;;;56.00;41.75;;;;;16.19;29.97;102268.34;4982547;28;45241;-76
2022/03/25 00:57:23;;;;;;;;;52.50;43.50;;;;;16.11;29.95;102254.22;4980405;28;45323;-76
2022/03/25 00:59:48;;;;;;;;;51.50;43.00;;;;;16.06;30.07;102257.06;4975271;28;45397;-76
2022/03/25 01:02:14;;;;;;;;;51.75;41.50;;;;;16.00;30.27;102257.22;4979867;28;46370;-77
2022/03/25 01:04:39;;;;;;;;;53.00;42.50;;;;;16.05;30.03;102268.75;4976171;28;46267;-79
2022/03/25 01:07:04;;;;;;;;;50.75;41.50;;;;;16.05;30.36;102273.25;4979721;28;45607;-78
2022/03/25 01:09:30;;;;;;;;;49.50;41.00;;;;;16.05;30.52;102267.88;4974884;28;45436;-78
2022/03/25 01:11:55;;;;;;;;;51.00;40.75;;;;;16.07;30.79;102264.22;4981714;28;45661;-78
2022/03/25 01:14:21;;;;;;;;;53.50;41.50;;;;;16.05;30.81;102260.66;4981875;28;45981;-77
2022/03/25 01:16:47;;;;;;;;;51.75;42.25;;;;;16.05;31.05;102265.19;4982487;28;45468;-78
2022/03/25 01:19:12;;;;;;;;;49.75;40.25;;;;;16.04;31.08;102255.34;4976763;28;45430;-78
2022/03/25 01:21:38;;;;;;;;;48.00;40.75;;;;;16.05;31.12;102255.28;4981644;28;45387;-78
2022/03/25 01:24:04;;;;;;;;;56.25;44.00;;;;;16.04;31.15;102252.66;4982296;28;45393;-78
2022/03/25 01:26:30;;;;;;;;;55.75;43.25;;;;;16.01;31.29;102258.13;4979854;28;45836;-77
2022/03/25 01:28:56;;;;;;;;;53.50;42.00;;;;;16.02;31.15;102247.31;4980581;28;45350;-78
2022/03/25 01:31:21;;;;;;;;;53.00;41.75;;;;;15.98;31.33;102242.06;4968086;28;45488;-78
2022/03/25 01:33:47;;;;;;;;;53.50;42.00;;;;;15.97;31.39;102249.28;4975869;28;45940;-78
2022/03/25 01:36:12;;;;;;;;;51.25;40.50;;;;;15.96;31.35;102244.81;4976824;28;45227;-78
2022/03/25 01:38:38;;;;;;;;;49.50;40.50;;;;;15.95;31.36;102248.41;4980984;28;45633;-78
2022/03/25 01:41:03;;;;;;;;;50.00;39.00;;;;;15.90;31.41;102235.13;4980809;28;45238;-78
2022/03/25 01:43:29;;;;;;;;;52.25;43.50;;;;;15.90;31.67;102231.53;4981661;28;46344;-78
2022/03/25 01:45:55;;;;;;;;;50.00;42.00;;;;;15.87;31.69;102235.22;4980922;28;45535;-78
2022/03/25 01:48:22;;;;;;;;;54.00;43.50;;;;;15.89;31.71;102230.66;4979348;28;45455;-78
2022/03/25 01:50:48;;;;;;;;;54.75;44.25;;;;;15.87;31.64;102243.28;4981007;28;45420;-78
2022/03/25 01:53:16;;;;;;;;;49.50;40.00;;;;;15.77;31.88;102222.97;4981159;28;46205;-78
2022/03/25 01:55:58;;;;;;;;;51.00;41.25;;;;;15.83;31.68;102241.59;4980858;28;45621;-78
2022/03/25 01:58:26;;;;;;;;;55.50;43.75;;;;;15.80;31.78;102230.91;4979628;28;45393;-78
2022/03/25 02:00:51;;;;;;;;;53.25;43.75;;;;;15.81;31.72;102239.91;4981372;28;45293;-78
2022/03/25 02:03:18;;;;;;;;;53.75;44.25;;;;;15.77;31.88;102239.13;4970980;28;45521;-78
2022/03/25 02:05:45;;;;;;;;;52.25;42.25;;;;;15.77;31.66;102233.72;4977081;28;45917;-78
2022/03/25 02:08:10;;;;;;;;;56.25;45.00;;;;;15.72;31.63;102227.56;4977031;28;45340;-78
2022/03/25 02:10:37;;;;;;;;;53.75;43.00;;;;;15.63;31.63;102226.03;4976107;28;45423;-78
2022/03/25 02:13:03;;;;;;;;;55.25;45.00;;;;;15.66;31.80;102228.63;4971416;28;46342;-78
2022/03/25 02:15:34;;;;;;;;;51.25;42.75;;;;;15.61;31.96;102224.31;4970624;28;45385;-78
2022/03/25 02:18:05;;;;;;;;;50.00;42.25;;;;;15.65;31.87;102232.25;4970687;28;45542;-77
2022/03/25 02:20:31;;;;;;;;;39.00;29.50;;;;;15.61;32.10;102230.56;4968173;28;45451;-78
2022/03/25 02:22:57;;;;;;;;;55.50;44.75;;;;;15.62;31.51;102229.66;4972473;28;46387;-78
2022/03/25 02:25:26;;;;;;;;;57.25;46.75;;;;;15.60;31.57;102238.69;4980558;28;45503;-78
2022/03/25 02:27:52;;;;;;;;;55.50;44.25;;;;;15.56;31.95;102230.69;4974785;28;45492;-78
2022/03/25 02:30:18;;;;;;;;;57.00;45.00;;;;;15.53;32.16;102233.47;4978534;28;45402;-78
2022/03/25 02:32:43;;;;;;;;;46.75;36.75;;;;;15.49;32.20;102229.13;4981002;28;45392;-79
2022/03/25 02:35:10;;;;;;;;;50.75;41.25;;;;;15.52;32.33;102236.25;4980870;28;45405;-78
2022/03/25 02:37:36;;;;;;;;;50.00;38.50;;;;;15.51;32.47;102231.78;4977452;28;45420;-78
2022/03/25 02:40:01;;;;;;;;;56.00;45.75;;;;;15.49;32.49;102234.50;4975853;28;45389;-78
2022/03/25 02:42:26;;;;;;;;;51.50;43.25;;;;;15.42;32.31;102227.56;4980506;28;47155;-78
2022/03/25 02:44:52;;;;;;;;;49.00;41.75;;;;;15.44;32.60;102244.53;4987798;28;45384;-78
2022/03/25 02:47:17;;;;;;;;;55.00;43.75;;;;;15.42;32.67;102237.41;4975384;28;45439;-78
2022/03/25 02:49:43;;;;;;;;;54.00;43.00;;;;;15.40;32.75;102245.53;4980520;28;45375;-78
2022/03/25 02:52:09;;;;;;;;;52.75;43.75;;;;;15.38;32.71;102242.00;4975290;28;45915;-78
2022/03/25 02:54:34;;;;;;;;;59.00;45.25;;;;;15.36;32.42;102246.56;4980303;28;46459;-78
2022/03/25 02:57:00;;;;;;;;;54.50;44.00;;;;;15.28;32.52;102230.63;4970636;28;45520;-78
2022/03/25 02:59:26;;;;;;;;;62.25;47.25;;;;;15.23;32.60;102224.47;4971747;28;45462;-78
2022/03/25 03:01:52;;;;;;;;;54.25;42.00;;;;;15.27;32.23;102236.94;4975278;28;45445;-78
2022/03/25 03:04:17;;;;;;;;;51.25;41.50;;;;;15.22;32.50;102235.28;4977205;28;45428;-78
2022/03/25 03:06:43;;;;;;;;;55.25;44.50;;;;;15.25;32.50;102236.13;4979105;28;45754;-78
2022/03/25 03:09:09;;;;;;;;;54.50;42.50;;;;;15.20;32.83;102235.31;4976824;28;45552;-78
2022/03/25 03:11:35;;;;;;;;;54.00;43.00;;;;;15.11;32.90;102219.47;4980341;28;46297;-78
2022/03/25 03:14:01;;;;;;;;;54.50;43.25;;;;;15.21;32.50;102238.91;4978464;28;45850;-77
2022/03/25 03:16:26;;;;;;;;;53.00;42.75;;;;;15.12;32.86;102230.19;4978964;28;45560;-78
2022/03/25 03:18:52;;;;;;;;;54.00;44.00;;;;;15.16;33.03;102239.03;4979464;28;45477;-77
2022/03/25 03:21:17;;;;;;;;;54.00;42.00;;;;;15.14;33.23;102236.41;4977965;28;45448;-78
2022/03/25 03:23:43;;;;;;;;;56.50;45.75;;;;;15.13;32.77;102244.50;4973755;28;45914;-78
2022/03/25 03:26:09;;;;;;;;;55.50;42.50;;;;;15.03;32.37;102227.72;4977130;28;45262;-78
2022/03/25 03:28:35;;;;;;;;;57.50;44.25;;;;;15.01;32.53;102237.66;4974354;28;45418;-77
2022/03/25 03:31:00;;;;;;;;;57.25;46.00;;;;;15.03;32.90;102237.63;4977353;28;45486;-78
2022/03/25 03:33:26;;;;;;;;;51.75;39.25;;;;;15.03;32.97;102233.09;4980125;28;45401;-77
2022/03/25 03:35:51;;;;;;;;;56.00;44.25;;;;;15.00;33.02;102227.81;4979963;28;45318;-78
2022/03/25 03:38:17;;;;;;;;;52.00;43.75;;;;;14.95;33.26;102219.00;4977801;28;45459;-78
2022/03/25 03:40:42;;;;;;;;;55.25;44.50;;;;;15.00;33.13;102231.41;4979446;28;45454;-77
2022/03/25 03:43:07;;;;;;;;;56.00;45.25;;;;;14.98;33.16;102232.34;4975429;28;45401;-78
2022/03/25 03:45:33;;;;;;;;;52.00;42.25;;;;;14.96;33.02;102236.91;4975242;28;45467;-77
2022/03/25 03:47:58;;;;;;;;;54.75;42.50;;;;;14.90;32.90;102219.13;4976961;28;45548;-78
2022/03/25 03:50:24;;;;;;;;;57.50;45.00;;;;;14.86;33.27;102211.19;4979134;28;46633;-77
2022/03/25 03:52:49;;;;;;;;;52.25;42.00;;;;;14.91;33.32;102220.00;4969731;28;45432;-78
2022/03/25 03:55:15;;;;;;;;;56.25;44.50;;;;;14.93;33.41;102228.91;4975216;28;45261;-78
2022/03/25 03:57:41;;;;;;;;;55.00;44.50;;;;;14.92;33.27;102237.91;4977348;28;45429;-78
2022/03/25 04:00:12;;;;;;;;;54.25;43.50;;;;;14.89;33.20;102228.13;4978813;28;46624;-78
2022/03/25 04:02:38;;;;;;;;;53.00;42.00;;;;;14.88;33.45;102226.34;4973250;28;45823;-78
2022/03/25 04:05:05;;;;;;;;;52.25;43.00;;;;;14.89;33.55;102235.31;4976373;28;45906;-78
2022/03/25 04:07:30;;;;;;;;;53.25;44.00;;;;;14.86;33.52;102232.69;4969779;28;45504;-78
2022/03/25 04:09:56;;;;;;;;;53.25;41.25;;;;;14.80;33.19;102229.25;4973863;28;46876;-78
2022/03/25 04:12:21;;;;;;;;;54.00;44.00;;;;;14.81;33.78;102233.69;4975115;28;45583;-79
2022/03/25 04:14:47;;;;;;;;;53.75;43.25;;;;;14.74;33.69;102223.16;4966952;28;45424;-79
2022/03/25 04:17:13;;;;;;;;;51.75;43.00;;;;;14.74;33.41;102237.47;4973493;28;45839;-79
2022/03/25 04:19:39;;;;;;;;;56.00;45.00;;;;;14.74;33.34;102237.47;4963798;28;46634;-79
2022/03/25 04:22:05;;;;;;;;;55.50;45.50;;;;;14.70;33.51;102229.50;4960710;28;45430;-79
2022/03/25 04:24:31;;;;;;;;;53.00;43.00;;;;;14.73;33.98;102233.00;4963907;28;45330;-79
2022/03/25 04:26:56;;;;;;;;;54.25;43.00;;;;;14.72;34.01;102233.94;4978064;28;45536;-79
2022/03/25 04:29:22;;;;;;;;;52.50;41.00;;;;;14.71;33.99;102252.78;4965816;28;46533;-79
2022/03/25 04:31:47;;;;;;;;;51.25;41.50;;;;;14.69;34.12;102244.75;4976089;28;45587;-79
2022/03/25 04:34:12;;;;;;;;;54.75;43.00;;;;;14.61;34.22;102234.19;4976392;28;46527;-79
2022/03/25 04:36:38;;;;;;;;;56.75;46.00;;;;;14.66;34.04;102244.84;4965997;28;46183;-79
2022/03/25 04:39:03;;;;;;;;;56.75;43.50;;;;;14.63;34.31;102248.50;4976566;28;46306;-79
2022/03/25 04:41:29;;;;;;;;;53.25;43.25;;;;;14.61;34.67;102242.25;4979147;28;45374;-79
2022/03/25 04:43:54;;;;;;;;;53.75;43.75;;;;;14.59;34.33;102245.94;4987341;28;45370;-79
2022/03/25 04:46:20;;;;;;;;;56.75;45.25;;;;;14.59;33.90;102249.47;4977561;28;45522;-79
2022/03/25 04:48:45;;;;;;;;;53.75;44.75;;;;;14.57;34.24;102251.31;4977782;28;46390;-79
2022/03/25 04:51:11;;;;;;;;;51.00;42.75;;;;;14.54;34.76;102246.00;4974865;28;45337;-79
2022/03/25 04:53:37;;;;;;;;;55.50;44.75;;;;;14.52;34.61;102255.03;4973269;28;45590;-79
2022/03/25 04:56:04;;;;;;;;;27.25;22.50;;;;;14.48;34.42;102248.84;4978426;28;45340;-79
2022/03/25 04:58:30;;;;;;;;;51.75;44.25;;;;;14.49;34.39;102249.72;4975325;28;46869;-79
2022/03/25 05:00:55;;;;;;;;;54.75;43.25;;;;;14.45;34.33;102251.63;4978974;28;45385;-78
2022/03/25 05:03:21;;;;;;;;;54.75;41.50;;;;;14.48;34.68;102266.75;4979504;28;45323;-78
2022/03/25 05:05:47;;;;;;;;;55.00;42.00;;;;;14.43;34.62;102258.81;4982282;28;45380;-79
2022/03/25 05:08:12;;;;;;;;;53.25;43.25;;;;;14.41;34.93;102261.53;4978561;28;45507;-79
2022/03/25 05:10:38;;;;;;;;;53.00;43.50;;;;;14.41;34.80;102266.91;4978687;28;48055;-79
2022/03/25 05:13:04;;;;;;;;;53.25;43.75;;;;;14.41;35.07;102280.34;4978804;28;45517;-79
2022/03/25 05:15:30;;;;;;;;;60.00;45.00;;;;;14.39;34.89;102258.00;4979099;28;45914;-79
2022/03/25 05:17:55;;;;;;;;;54.00;44.00;;;;;14.35;34.98;102261.69;4981187;28;45334;-79
2022/03/25 05:20:22;;;;;;;;;56.25;46.50;;;;;14.38;34.76;102267.00;4977829;28;45222;-79
2022/03/25 05:22:48;;;;;;;;;54.50;44.25;;;;;14.41;35.06;102271.41;4971978;28;45323;-79
2022/03/25 05:25:14;;;;;;;;;58.00;45.75;;;;;14.39;35.09;102273.25;4982378;28;45308;-79
2022/03/25 05:27:44;;;;;;;;;49.50;41.75;;;;;14.33;35.25;102266.19;4973076;28;46357;-79
2022/03/25 05:30:11;;;;;;;;;55.25;44.00;;;;;14.30;35.19;102270.75;4975308;28;45762;-80
2022/03/25 05:32:36;;;;;;;;;56.75;43.25;;;;;14.32;35.07;102275.19;4982260;28;45214;-79
2022/03/25 05:35:01;;;;;;;;;54.50;44.50;;;;;14.27;35.12;102266.38;4974365;28;45404;-79
2022/03/25 05:37:26;;;;;;;;;56.50;46.00;;;;;14.29;35.09;102266.34;4981857;28;46945;-79
2022/03/25 05:39:52;;;;;;;;;53.25;41.00;;;;;14.26;35.37;102269.97;4980050;28;45610;-79
2022/03/25 05:42:17;;;;;;;;;48.25;39.75;;;;;14.28;35.13;102281.53;4981838;28;46033;-79
2022/03/25 05:44:43;;;;;;;;;55.75;44.75;;;;;14.23;35.41;102272.72;4985730;28;45518;-79
2022/03/25 05:47:08;;;;;;;;;49.50;41.00;;;;;14.19;35.42;102266.53;4979982;28;46352;-79
2022/03/25 05:49:34;;;;;;;;;50.00;42.25;;;;;14.20;35.65;102272.78;4979937;28;45395;-78
2022/03/25 05:51:59;;;;;;;;;52.00;42.25;;;;;14.16;35.69;102271.97;4981925;28;45797;-79
2022/03/25 05:54:24;;;;;;;;;56.00;44.75;;;;;14.11;35.69;102271.19;4981512;28;45438;-79
2022/03/25 05:56:50;;;;;;;;;51.50;41.25;;;;;14.13;35.77;102274.72;4978667;28;45494;-80
2022/03/25 05:59:15;;;;;;;;;59.75;44.00;;;;;14.12;35.85;102281.03;4978776;28;45477;-81
2022/03/25 06:01:42;;;;;;;;;54.50;43.00;;;;;14.04;35.92;102266.91;4981092;28;46542;-80
2022/03/25 06:04:07;;;;;;;;;52.50;42.00;;;;;14.07;35.89;102277.56;4977936;28;45684;-81
2022/03/25 06:06:33;;;;;;;;;57.75;46.25;;;;;14.06;35.79;102279.34;4979469;28;45488;-81
2022/03/25 06:08:58;;;;;;;;;55.75;44.00;;;;;14.03;36.03;102267.81;4979720;28;45368;-83
2022/03/25 06:11:23;;;;;;;;;53.25;43.50;;;;;14.08;36.22;102290.97;4979866;28;45863;-88
2022/03/25 06:13:49;;;;;;;;;55.50;43.25;;;;;14.01;36.00;102286.63;4977681;28;45309;-71
2022/03/25 06:16:14;;;;;;;;;55.50;44.75;;;;;14.01;35.81;102285.75;4974825;28;46071;-72
2022/03/25 06:18:40;;;;;;;;;57.75;44.50;;;;;14.04;36.23;102299.13;4969186;28;45523;-72
2022/03/25 06:21:05;;;;;;;;;50.00;41.00;;;;;14.04;36.31;102296.44;4975381;28;45416;-73
2022/03/25 06:23:31;;;;;;;;;56.00;44.25;;;;;14.00;36.12;102298.31;4985449;28;45300;-73
2022/03/25 06:25:56;;;;;;;;;52.00;43.75;;;;;14.01;36.36;102302.72;4985856;28;47176;-73
2022/03/25 06:28:23;;;;;;;;;59.75;47.00;;;;;13.98;36.18;102296.56;4973482;28;45559;-73
2022/03/25 06:30:48;;;;;;;;;57.50;45.50;;;;;13.98;36.06;102294.78;4966856;28;45419;-72
2022/03/25 06:33:14;;;;;;;;;58.00;46.50;;;;;13.95;36.08;102292.16;4970932;28;45508;-73
2022/03/25 06:35:39;;;;;;;;;55.50;43.50;;;;;13.99;36.09;102293.84;4985036;28;45467;-73
2022/03/25 06:38:06;;;;;;;;;57.25;46.25;;;;;14.06;36.00;102308.00;4974678;28;45377;-73
2022/03/25 06:40:32;;;;;;;;;62.75;48.25;;;;;14.08;36.16;102308.84;4986213;28;45376;-73
2022/03/25 06:42:58;;;;;;;;;54.00;45.25;;;;;14.01;36.09;102304.53;4976070;28;45470;-71
2022/03/25 06:45:24;;;;;;;;;51.50;42.50;;;;;14.05;35.82;102312.50;4970595;28;46268;-73
2022/03/25 06:47:50;;;;;;;;;59.50;45.75;;;;;14.07;36.18;102321.41;4974731;28;45338;-73
2022/03/25 06:50:18;;;;;;;;;26.00;24.25;;;;;14.06;36.30;102321.44;4968806;28;45411;-82
2022/03/25 06:52:45;;;;;;;;;58.00;45.75;;;;;14.01;36.53;102310.78;4977140;28;45739;-81
2022/03/25 06:55:12;;;;;;;;;58.00;46.25;;;;;13.99;36.21;102309.94;4972907;28;45511;-81
2022/03/25 06:57:38;;;;;;;;;58.25;46.75;;;;;14.06;36.60;102330.38;4975018;28;45404;-82
2022/03/25 07:00:05;;;;;;;;;54.50;45.50;;;;;14.06;36.78;102330.38;4980519;28;45468;-81
2022/03/25 07:02:31;;;;;;;;;60.25;47.75;;;;;14.00;36.79;102321.56;4974498;28;45222;-90
2022/03/25 07:04:56;;;;;;;;;56.75;46.75;;;;;14.03;36.88;102325.09;4976864;28;46088;-91
2022/03/25 07:07:26;;;;;;;;;55.75;44.25;;;;;14.01;36.87;102321.53;4966791;28;45446;-85
2022/03/25 07:09:55;;;;;;;;;58.25;46.00;;;;;13.97;36.51;102314.47;4978725;28;45477;-73
2022/03/25 07:12:21;;;;;;;;;62.25;47.00;;;;;14.00;36.93;102319.78;4973925;28;45388;-80
2022/03/25 07:14:46;;;;;;;;;57.25;47.50;;;;;14.00;37.04;102325.16;4972757;28;45381;-77
2022/03/25 07:17:11;;;;;;;;;56.00;45.00;;;;;14.00;37.21;102330.53;4983157;28;45425;-82
2022/03/25 07:19:37;;;;;;;;;54.25;44.50;;;;;14.03;36.75;102332.25;4979241;28;45456;-79
2022/03/25 07:22:03;;;;;;;;;58.00;44.75;;;;;14.05;36.60;102327.75;4978355;28;45495;-74
2022/03/25 07:24:29;;;;;;;;;55.25;44.00;;;;;14.03;36.91;102330.47;4979940;28;45633;-74
2022/03/25 07:26:55;;;;;;;;;58.50;47.25;;;;;14.07;36.44;102340.19;4975952;28;45427;-76
2022/03/25 07:29:20;;;;;;;;;59.50;46.25;;;;;14.05;36.39;102336.69;4979066;28;45801;-73
2022/03/25 07:31:46;;;;;;;;;55.50;45.00;;;;;14.04;36.39;102332.22;4979868;28;46261;-73
2022/03/25 07:34:11;;;;;;;;;60.50;46.50;;;;;14.09;36.64;102340.16;4979357;28;46006;-73
2022/03/25 07:36:36;;;;;;;;;56.50;45.25;;;;;14.12;36.46;102349.97;4973903;28;45466;-73
2022/03/25 07:39:03;;;;;;;;;59.50;45.25;;;;;14.11;36.23;102348.19;4974031;28;45403;-73
2022/03/25 07:41:29;;;;;;;;;54.00;43.00;;;;;14.03;36.30;102333.16;4979468;28;45470;-73
2022/03/25 07:43:55;;;;;;;;;60.25;46.00;;;;;14.19;36.32;102354.28;4981830;28;46542;-73
2022/03/25 07:46:20;;;;;;;;;52.00;43.75;;;;;14.20;36.17;102354.25;4976895;28;46118;-73
2022/03/25 07:48:46;;;;;;;;;59.00;47.00;;;;;14.22;36.03;102351.53;4977494;28;45507;-75
2022/03/25 07:51:11;;;;;;;;;59.25;47.50;;;;;14.25;35.77;102343.41;4975469;28;45833;-73
2022/03/25 07:53:37;;;;;;;;;57.00;46.00;;;;;14.33;36.47;102359.34;4978478;28;47053;-73
2022/03/25 07:56:02;;;;;;;;;58.75;46.25;;;;;14.34;36.47;102356.63;4971200;28;45349;-73
2022/03/25 07:58:28;;;;;;;;;55.75;45.75;;;;;14.36;36.29;102359.28;4973233;28;45454;-73
2022/03/25 08:00:54;;;;;;;;;60.25;48.25;;;;;14.40;36.09;102367.25;4979243;28;45425;-73
2022/03/25 08:03:19;;;;;;;;;62.00;48.25;;;;;14.42;36.02;102357.34;4974502;28;46313;-73
2022/03/25 08:05:48;;;;;;;;;58.25;45.75;;;;;14.43;35.36;102364.50;4979601;28;45554;-73
2022/03/25 08:08:15;;;;;;;;;64.00;49.50;;;;;14.44;35.85;102362.69;4970388;28;45662;-73
2022/03/25 08:10:41;;;;;;;;;59.00;44.50;;;;;14.44;36.11;102366.25;4975710;28;45520;-73
2022/03/25 08:13:07;;;;;;;;;61.75;49.75;;;;;14.49;35.21;102367.97;4975145;28;45694;-73
2022/03/25 08:15:34;;;;;;;;;64.00;51.00;;;;;14.43;34.96;102366.28;4970145;28;45378;-73
2022/03/25 08:18:05;;;;;;;;;65.50;50.25;;;;;14.42;34.81;102367.22;4990243;28;45492;-73
2022/03/25 08:20:42;;;;;;;;;65.75;49.50;;;;;14.35;34.85;102368.25;4972070;28;45392;-73
2022/03/25 08:23:12;;;;;;;;;65.00;50.50;;;;;14.35;34.59;102368.25;4972608;28;47961;-71
2022/03/25 08:28:23;;;;;;;;;63.75;50.00;;;;;14.36;34.64;102370.91;4975892;28;45709;-74
2022/03/25 08:30:49;;;;;;;;;67.50;51.00;;;;;14.40;34.42;102380.69;4972057;28;45243;-71
2022/03/25 08:33:15;;;;;;;;;64.50;50.25;;;;;14.38;35.05;102365.50;4970753;28;45557;-71
2022/03/25 08:35:43;;;;;;;;;64.75;49.75;;;;;14.42;34.43;102369.91;4973055;28;45522;-71
2022/03/25 08:38:09;;;;;;;;;59.25;47.25;;;;;14.48;34.86;102368.88;4975486;28;45352;-71
2022/03/25 08:40:36;;;;;;;;;59.75;50.00;;;;;14.49;34.30;102370.66;4977378;28;45563;-71
2022/03/25 08:43:03;;;;;;;;;59.50;47.50;;;;;14.52;34.37;102373.28;4985305;28;45558;-71
2022/03/25 08:45:29;;;;;;;;;62.25;48.50;;;;;14.53;34.47;102362.44;4983141;28;46040;-71
2022/03/25 08:47:55;;;;;;;;;67.75;51.50;;;;;14.66;34.28;102375.66;4975188;28;45464;-71
2022/03/25 08:50:22;;;;;;;;;58.00;46.00;;;;;14.72;34.22;102375.53;4982241;28;45217;-73
2022/03/25 08:52:48;;;;;;;;;62.75;49.75;;;;;14.76;34.40;102377.19;4976874;28;45903;-73
2022/03/25 08:55:15;;;;;;;;;57.50;45.25;;;;;14.84;34.38;102380.59;4975503;28;47918;-72
2022/03/25 08:57:41;;;;;;;;;63.00;50.00;;;;;14.88;34.06;102378.72;4994047;28;45849;-73
2022/03/25 09:00:10;;;;;;;;;63.00;49.75;;;;;14.97;33.77;102376.69;4974758;28;46517;-74
2022/03/25 09:02:37;;;;;;;;;63.00;49.25;;;;;14.99;34.01;102373.97;4980382;28;45292;-73
2022/03/25 09:05:04;;;;;;;;;57.75;47.75;;;;;15.05;34.14;102373.81;4981433;28;45358;-74
2022/03/25 09:07:29;;;;;;;;;22.25;16.00;;;;;15.06;33.76;102364.81;4966559;28;45664;-76
2022/03/25 09:09:55;;;;;;;;;58.50;47.00;;;;;15.12;33.57;102366.47;4981826;28;45334;-78
2022/03/25 09:12:20;;;;;;;;;58.00;47.00;;;;;15.19;33.69;102376.16;4982210;28;45356;-75
2022/03/25 09:14:45;;;;;;;;;62.25;49.00;;;;;15.23;33.47;102385.88;4980784;28;45419;-80
2022/03/25 09:17:11;;;;;;;;;63.25;49.50;;;;;15.24;33.23;102378.72;4974643;28;45467;-72
2022/03/25 09:19:36;;;;;;;;;55.25;45.25;;;;;15.26;33.30;102368.81;4973938;28;45448;-74
2022/03/25 09:22:02;;;;;;;;;64.75;48.00;;;;;15.37;33.47;102383.75;4980887;28;45980;-75
2022/03/25 09:24:27;;;;;;;;;63.75;50.00;;;;;15.36;33.17;102381.97;4981894;28;45317;-70
2022/03/25 09:26:54;;;;;;;;;62.75;49.00;;;;;15.42;33.48;102363.88;4979544;28;45519;-74
2022/03/25 09:29:19;;;;;;;;;63.50;49.75;;;;;15.44;33.46;102360.25;4980984;28;45341;-74
2022/03/25 09:31:44;;;;;;;;;66.25;51.50;;;;;15.48;33.21;102359.22;4980778;28;47218;-73
2022/03/25 09:36:55;;;;;;;;;68.75;53.75;;;;;15.59;32.98;102358.06;4966479;28;45412;-75
2022/03/25 09:39:20;;;;;;;;;67.75;51.75;;;;;15.63;33.09;102367.81;4980922;28;45403;-75
2022/03/25 09:41:46;;;;;;;;;65.00;49.50;;;;;15.69;33.07;102355.06;4981784;28;46124;-75
2022/03/25 09:44:14;;;;;;;;;67.00;52.00;;;;;15.81;32.86;102372.72;4970725;28;45271;-75
2022/03/25 09:46:42;;;;;;;;;68.00;52.25;;;;;15.83;32.62;102368.16;4976068;28;45648;-75
2022/03/25 09:49:10;;;;;;;;;66.75;51.75;;;;;15.92;32.51;102353.53;4979094;28;45463;-74
2022/03/25 09:51:36;;;;;;;;;69.50;53.00;;;;;16.04;32.59;102355.00;4973363;28;45336;-75
2022/03/25 09:54:02;;;;;;;;;65.50;52.50;;;;;16.08;32.34;102353.97;4980546;28;45455;-75
2022/03/25 09:56:27;;;;;;;;;68.50;53.00;;;;;16.23;32.35;102369.69;4979880;28;45332;-76
2022/03/25 09:58:52;;;;;;;;;60.25;48.00;;;;;16.32;32.09;102363.13;4980078;28;45248;-75
2022/03/25 10:01:18;;;;;;;;;67.25;52.50;;;;;16.38;31.82;102367.44;4974659;28;45440;-75
2022/03/25 10:03:43;;;;;;;;;66.50;51.75;;;;;16.41;31.73;102365.53;4981121;28;45412;-74
2022/03/25 10:06:11;;;;;;;;;65.50;51.00;;;;;16.51;31.62;102362.56;4975848;28;45551;-76
2022/03/25 10:08:39;;;;;;;;;67.50;52.50;;;;;16.52;31.74;102356.22;4972204;28;46100;-75
2022/03/25 10:11:28;;;;;;;;;64.75;49.50;;;;;16.56;31.26;102350.69;4975022;28;45412;-77
2022/03/25 10:14:29;;;;;;;;;67.25;53.00;;;;;16.65;31.22;102361.16;4980346;28;45887;-77
2022/03/25 10:16:55;;;;;;;;;62.75;50.00;;;;;16.67;31.18;102348.56;4970477;28;46895;-75
2022/03/25 10:19:23;;;;;;;;;65.25;52.00;;;;;16.78;31.19;102353.56;4979131;28;45538;-74
2022/03/25 10:21:50;;;;;;;;;64.25;49.00;;;;;16.88;31.26;102356.03;4979304;28;46049;-75
2022/03/25 10:24:18;;;;;;;;;66.50;52.25;;;;;16.91;31.18;102346.00;4977524;28;45909;-75
2022/03/25 10:26:45;;;;;;;;;61.00;47.75;;;;;16.95;31.40;102347.66;4975483;28;45382;-75
2022/03/25 10:29:22;;;;;;;;;68.50;55.25;;;;;16.97;30.66;102339.50;4978722;28;45372;-76
2022/03/25 10:32:07;;;;;;;;;66.75;53.25;;;;;17.07;30.77;102350.88;4980446;28;46316;-75
2022/03/25 10:34:34;;;;;;;;;62.00;49.75;;;;;17.13;30.74;102356.06;4975883;28;45697;-76
2022/03/25 10:37:02;;;;;;;;;67.75;54.50;;;;;17.19;30.55;102342.34;4972253;28;45487;-78
2022/03/25 10:39:28;;;;;;;;;65.00;51.00;;;;;17.16;31.00;102327.16;4977765;28;45910;-76
2022/03/25 10:41:58;;;;;;;;;65.25;50.75;;;;;17.28;30.12;102338.47;4978335;28;46826;-76
2022/03/25 10:44:50;;;;;;;;;67.00;52.50;;;;;17.37;30.42;102343.53;4978388;28;45380;-77
2022/03/25 10:47:15;;;;;;;;;70.50;56.00;;;;;17.37;30.66;102341.72;4978742;28;45365;-80
2022/03/25 10:49:43;;;;;;;;;70.33;52.33;;;;;17.38;30.58;102331.81;4981108;28;45522;-78
2022/03/25 10:52:31;;;;;;;;;61.75;50.25;;;;;17.49;30.55;102343.09;4980416;28;45928;-77
2022/03/25 10:55:23;;;;;;;;;70.00;55.25;;;;;17.52;30.44;102345.66;4979550;28;45383;-77
2022/03/25 10:57:56;;;;;;;;;65.50;52.50;;;;;17.57;30.44;102341.00;4980974;28;45514;-78
2022/03/25 11:00:24;;;;;;;;;64.25;51.25;;;;;17.59;30.22;102341.84;4979834;28;45312;-79
2022/03/25 11:02:50;;;;;;;;;65.50;50.75;;;;;17.67;29.87;102341.53;4979965;28;45381;-80
2022/03/25 11:05:16;;;;;;;;;60.75;47.50;;;;;17.71;30.22;102345.91;4979179;28;45369;-79
2022/03/25 11:07:44;;;;;;;;;67.25;54.75;;;;;17.74;30.22;102332.28;4980601;28;45324;-75
2022/03/25 11:10:17;;;;;;;;;64.25;50.75;;;;;17.83;29.95;102339.16;4980269;28;45439;-76
2022/03/25 11:12:48;;;;;;;;;70.50;54.25;;;;;17.89;29.96;102338.97;4978405;28;46359;-74